createdAt,value
2023-05-02T00:00:09.685Z,977.29
2023-05-02T00:01:09.599Z,977.31
2023-05-02T00:02:09.602Z,977.31
2023-05-02T00:03:09.464Z,977.30
2023-05-02T00:04:09.472Z,977.27
2023-05-02T00:05:09.275Z,977.26
2023-05-02T00:06:09.215Z,977.24
2023-05-02T00:07:09.106Z,977.27
2023-05-02T00:08:09.041Z,977.21
2023-05-02T00:09:08.949Z,977.22
2023-05-02T00:10:08.867Z,977.21
2023-05-02T00:11:08.789Z,977.20
2023-05-02T00:12:08.708Z,977.18
2023-05-02T00:13:08.615Z,977.19
2023-05-02T00:14:08.540Z,977.16
2023-05-02T00:15:08.451Z,977.16
2023-05-02T00:16:08.380Z,977.15
2023-05-02T00:17:08.309Z,977.16
2023-05-02T00:18:08.255Z,977.13
2023-05-02T00:19:08.130Z,977.13
2023-05-02T00:20:08.045Z,977.12
2023-05-02T00:21:07.957Z,977.14
2023-05-02T00:22:07.890Z,977.11
2023-05-02T00:23:07.794Z,977.10
2023-05-02T00:24:07.718Z,977.14
2023-05-02T00:25:07.633Z,977.16
2023-05-02T00:26:07.556Z,977.15
2023-05-02T00:27:07.464Z,977.13
2023-05-02T00:28:07.381Z,977.16
2023-05-02T00:29:07.308Z,977.20
2023-05-02T00:30:07.225Z,977.15
2023-05-02T00:31:07.188Z,977.17
2023-05-02T00:32:07.059Z,977.12
2023-05-02T00:33:07.093Z,977.10
2023-05-02T00:34:06.895Z,977.09
2023-05-02T00:35:06.813Z,977.02
2023-05-02T00:36:06.722Z,977.08
2023-05-02T00:37:06.639Z,977.10
2023-05-02T00:38:06.559Z,977.10
2023-05-02T00:39:06.483Z,977.11
2023-05-02T00:40:06.402Z,977.12
2023-05-02T00:41:06.314Z,977.09
2023-05-02T00:42:06.246Z,977.10
2023-05-02T00:43:06.174Z,977.11
2023-05-02T00:44:06.067Z,977.10
2023-05-02T00:45:06.004Z,977.10
2023-05-02T00:46:05.952Z,977.08
2023-05-02T00:47:05.819Z,977.12
2023-05-02T00:48:05.754Z,977.10
2023-05-02T00:49:05.661Z,977.11
2023-05-02T00:50:05.629Z,977.09
2023-05-02T00:51:05.499Z,977.06
2023-05-02T00:52:05.404Z,977.05
2023-05-02T00:53:05.322Z,977.11
2023-05-02T00:54:05.242Z,977.13
2023-05-02T00:55:05.162Z,977.11
2023-05-02T00:56:05.081Z,977.12
2023-05-02T00:57:04.996Z,977.18
2023-05-02T00:58:04.943Z,977.13
2023-05-02T00:59:04.828Z,977.15
2023-05-02T01:00:04.752Z,977.14
2023-05-02T01:01:04.671Z,977.15
2023-05-02T01:02:04.604Z,977.16
2023-05-02T01:03:04.614Z,977.15
2023-05-02T01:04:04.521Z,977.17
2023-05-02T01:05:04.338Z,977.20
2023-05-02T01:06:04.275Z,977.17
2023-05-02T01:07:04.169Z,977.20
2023-05-02T01:08:04.080Z,977.19
2023-05-02T01:09:04.003Z,977.19
2023-05-02T01:10:03.920Z,977.17
2023-05-02T01:11:03.836Z,977.17
2023-05-02T01:12:03.764Z,977.21
2023-05-02T01:13:03.667Z,977.23
2023-05-02T01:14:03.589Z,977.22
2023-05-02T01:15:03.536Z,977.18
2023-05-02T01:16:03.575Z,977.18
2023-05-02T01:17:03.339Z,977.17
2023-05-02T01:18:03.305Z,977.18
2023-05-02T01:19:03.176Z,977.18
2023-05-02T01:20:03.328Z,977.21
2023-05-02T01:21:03.006Z,977.19
2023-05-02T01:22:02.930Z,977.23
2023-05-02T01:23:02.838Z,977.21
2023-05-02T01:24:02.757Z,977.22
2023-05-02T01:25:02.680Z,977.30
2023-05-02T01:26:02.593Z,977.27
2023-05-02T01:27:02.515Z,977.29
2023-05-02T01:28:02.432Z,977.26
2023-05-02T01:29:02.346Z,977.24
2023-05-02T01:30:02.505Z,977.24
2023-05-02T01:31:02.180Z,977.28
2023-05-02T01:32:02.173Z,977.29
2023-05-02T01:33:02.069Z,977.26
2023-05-02T01:34:01.929Z,977.29
2023-05-02T01:35:01.862Z,977.28
2023-05-02T01:36:01.764Z,977.28
2023-05-02T01:37:01.678Z,977.29
2023-05-02T01:38:01.597Z,977.29
2023-05-02T01:39:01.523Z,977.30
2023-05-02T01:40:01.823Z,977.31
2023-05-02T01:41:01.356Z,977.31
2023-05-02T01:42:01.269Z,977.34
2023-05-02T01:43:01.186Z,977.34
2023-05-02T01:44:01.106Z,977.39
2023-05-02T01:45:01.022Z,977.33
2023-05-02T01:46:00.956Z,977.33
2023-05-02T01:47:00.882Z,977.33
2023-05-02T01:48:00.827Z,977.35
2023-05-02T01:49:00.690Z,977.35
2023-05-02T01:50:00.961Z,977.34
2023-05-02T01:51:00.523Z,977.37
2023-05-02T01:52:00.445Z,977.35
2023-05-02T01:53:00.357Z,977.37
2023-05-02T01:54:00.276Z,977.35
2023-05-02T01:55:00.202Z,977.35
2023-05-02T01:56:00.124Z,977.33
2023-05-02T01:57:00.024Z,977.29
2023-05-02T01:57:59.952Z,977.29
2023-05-02T01:58:59.875Z,977.28
2023-05-02T02:00:00.222Z,977.32
2023-05-02T02:00:59.739Z,977.30
2023-05-02T02:01:59.610Z,977.29
2023-05-02T02:02:59.551Z,977.34
2023-05-02T02:03:59.505Z,977.30
2023-05-02T02:04:59.397Z,977.32
2023-05-02T02:05:59.381Z,977.32
2023-05-02T02:06:59.209Z,977.33
2023-05-02T02:07:59.123Z,977.31
2023-05-02T02:08:59.037Z,977.28
2023-05-02T02:09:59.217Z,977.28
2023-05-02T02:10:58.902Z,977.34
2023-05-02T02:11:58.783Z,977.39
2023-05-02T02:12:58.698Z,977.37
2023-05-02T02:13:58.616Z,977.34
2023-05-02T02:14:58.538Z,977.38
2023-05-02T02:15:58.447Z,977.41
2023-05-02T02:16:58.460Z,977.42
2023-05-02T02:17:58.351Z,977.40
2023-05-02T02:18:58.206Z,977.39
2023-05-02T02:19:58.362Z,977.41
2023-05-02T02:20:58.033Z,977.44
2023-05-02T02:21:57.957Z,977.40
2023-05-02T02:22:57.874Z,977.37
2023-05-02T02:23:57.780Z,977.38
2023-05-02T02:24:57.714Z,977.37
2023-05-02T02:25:57.630Z,977.33
2023-05-02T02:26:57.534Z,977.36
2023-05-02T02:27:57.456Z,977.34
2023-05-02T02:28:57.372Z,977.33
2023-05-02T02:29:57.352Z,977.35
2023-05-02T02:30:57.234Z,977.34
2023-05-02T02:31:57.125Z,977.39
2023-05-02T02:32:57.070Z,977.37
2023-05-02T02:33:56.969Z,977.42
2023-05-02T02:34:56.875Z,977.41
2023-05-02T02:35:56.784Z,977.40
2023-05-02T02:36:56.715Z,977.38
2023-05-02T02:37:56.622Z,977.43
2023-05-02T02:38:56.554Z,977.40
2023-05-02T02:39:56.453Z,977.41
2023-05-02T02:40:56.400Z,977.43
2023-05-02T02:41:56.296Z,977.45
2023-05-02T02:42:56.225Z,977.46
2023-05-02T02:43:56.132Z,977.44
2023-05-02T02:44:56.055Z,977.47
2023-05-02T02:45:56.012Z,977.48
2023-05-02T02:46:55.878Z,977.46
2023-05-02T02:47:55.814Z,977.47
2023-05-02T02:48:55.706Z,977.48
2023-05-02T02:49:55.620Z,977.46
2023-05-02T02:50:55.537Z,977.50
2023-05-02T02:51:55.454Z,977.49
2023-05-02T02:52:55.378Z,977.50
2023-05-02T02:53:55.288Z,977.50
2023-05-02T02:54:55.205Z,977.56
2023-05-02T02:55:55.140Z,977.54
2023-05-02T02:56:55.047Z,977.56
2023-05-02T02:57:54.955Z,977.54
2023-05-02T02:58:54.880Z,977.55
2023-05-02T02:59:54.786Z,977.58
2023-05-02T03:00:54.706Z,977.58
2023-05-02T03:01:54.670Z,977.59
2023-05-02T03:02:54.620Z,977.62
2023-05-02T03:03:54.509Z,977.63
2023-05-02T03:04:54.369Z,977.63
2023-05-02T03:05:54.293Z,977.62
2023-05-02T03:06:54.245Z,977.65
2023-05-02T03:07:54.122Z,977.64
2023-05-02T03:08:54.041Z,977.61
2023-05-02T03:09:53.953Z,977.65
2023-05-02T03:10:53.876Z,977.68
2023-05-02T03:11:53.795Z,977.67
2023-05-02T03:12:53.706Z,977.70
2023-05-02T03:13:53.623Z,977.68
2023-05-02T03:14:53.550Z,977.70
2023-05-02T03:15:53.496Z,977.70
2023-05-02T03:16:53.378Z,977.69
2023-05-02T03:17:53.346Z,977.73
2023-05-02T03:18:53.202Z,977.73
2023-05-02T03:19:53.141Z,977.74
2023-05-02T03:20:53.046Z,977.77
2023-05-02T03:21:52.954Z,977.80
2023-05-02T03:22:52.887Z,977.82
2023-05-02T03:23:52.789Z,977.85
2023-05-02T03:24:52.705Z,977.86
2023-05-02T03:25:52.642Z,977.92
2023-05-02T03:26:52.538Z,977.92
2023-05-02T03:27:52.457Z,978.01
2023-05-02T03:28:52.372Z,978.09
2023-05-02T03:29:52.296Z,978.10
2023-05-02T03:30:52.208Z,978.14
2023-05-02T03:31:52.163Z,978.15
2023-05-02T03:32:52.103Z,978.19
2023-05-02T03:33:51.954Z,978.17
2023-05-02T03:34:51.876Z,978.15
2023-05-02T03:35:51.811Z,978.16
2023-05-02T03:36:51.712Z,978.19
2023-05-02T03:37:51.619Z,978.19
2023-05-02T03:38:51.558Z,978.19
2023-05-02T03:39:51.459Z,978.18
2023-05-02T03:40:51.375Z,978.11
2023-05-02T03:41:51.289Z,978.15
2023-05-02T03:42:51.207Z,978.12
2023-05-02T03:43:51.129Z,978.13
2023-05-02T03:44:51.032Z,978.10
2023-05-02T03:45:50.960Z,978.12
2023-05-02T03:46:50.939Z,978.14
2023-05-02T03:47:50.813Z,978.16
2023-05-02T03:48:50.716Z,978.19
2023-05-02T03:49:50.621Z,978.19
2023-05-02T03:50:50.539Z,978.22
2023-05-02T03:51:50.455Z,978.18
2023-05-02T03:52:50.375Z,978.18
2023-05-02T03:53:50.305Z,978.23
2023-05-02T03:54:50.211Z,978.24
2023-05-02T03:55:50.128Z,978.22
2023-05-02T03:56:50.054Z,978.25
2023-05-02T03:57:49.954Z,978.27
2023-05-02T03:58:49.876Z,978.28
2023-05-02T03:59:49.792Z,978.24
2023-05-02T04:00:49.711Z,978.25
2023-05-02T04:01:49.747Z,978.27
2023-05-02T04:02:49.582Z,978.27
2023-05-02T04:03:49.517Z,978.33
2023-05-02T04:04:49.373Z,978.32
2023-05-02T04:05:49.292Z,978.36
2023-05-02T04:06:49.398Z,978.39
2023-05-02T04:07:49.118Z,978.43
2023-05-02T04:08:49.059Z,978.41
2023-05-02T04:09:48.960Z,978.38
2023-05-02T04:10:48.865Z,978.41
2023-05-02T04:11:48.783Z,978.41
2023-05-02T04:12:48.706Z,978.41
2023-05-02T04:13:48.613Z,978.42
2023-05-02T04:14:48.533Z,978.48
2023-05-02T04:15:48.455Z,978.45
2023-05-02T04:16:48.435Z,978.44
2023-05-02T04:17:48.346Z,978.43
2023-05-02T04:18:48.213Z,978.46
2023-05-02T04:19:48.122Z,978.42
2023-05-02T04:20:48.044Z,978.44
2023-05-02T04:21:47.964Z,978.49
2023-05-02T04:22:47.868Z,978.43
2023-05-02T04:23:47.786Z,978.44
2023-05-02T04:24:47.706Z,978.45
2023-05-02T04:25:47.615Z,978.49
2023-05-02T04:26:47.568Z,978.49
2023-05-02T04:27:47.449Z,978.49
2023-05-02T04:28:47.370Z,978.48
2023-05-02T04:29:47.278Z,978.52
2023-05-02T04:30:47.233Z,978.51
2023-05-02T04:31:47.115Z,978.55
2023-05-02T04:32:47.089Z,978.55
2023-05-02T04:33:46.943Z,978.58
2023-05-02T04:34:46.863Z,978.57
2023-05-02T04:35:46.793Z,978.62
2023-05-02T04:36:46.718Z,978.60
2023-05-02T04:37:46.631Z,978.59
2023-05-02T04:38:46.525Z,978.64
2023-05-02T04:39:46.450Z,978.61
2023-05-02T04:40:46.360Z,978.62
2023-05-02T04:41:46.318Z,978.66
2023-05-02T04:42:46.197Z,978.69
2023-05-02T04:43:46.116Z,978.65
2023-05-02T04:44:46.032Z,978.68
2023-05-02T04:45:45.947Z,978.69
2023-05-02T04:46:46.011Z,978.74
2023-05-02T04:47:45.839Z,978.76
2023-05-02T04:48:45.695Z,978.80
2023-05-02T04:49:45.610Z,978.78
2023-05-02T04:50:45.537Z,978.81
2023-05-02T04:51:45.443Z,978.81
2023-05-02T04:52:45.398Z,978.82
2023-05-02T04:53:45.272Z,978.82
2023-05-02T04:54:45.195Z,978.82
2023-05-02T04:55:45.139Z,978.88
2023-05-02T04:56:45.024Z,978.84
2023-05-02T04:57:44.961Z,978.84
2023-05-02T04:58:44.869Z,978.89
2023-05-02T04:59:44.778Z,978.86
2023-05-02T05:00:44.690Z,978.88
2023-05-02T05:01:44.654Z,978.95
2023-05-02T05:02:44.733Z,978.92
2023-05-02T05:03:44.542Z,978.91
2023-05-02T05:04:44.355Z,978.93
2023-05-02T05:05:44.300Z,978.95
2023-05-02T05:06:44.257Z,978.94
2023-05-02T05:07:44.114Z,978.98
2023-05-02T05:08:44.028Z,979.01
2023-05-02T05:09:43.964Z,979.00
2023-05-02T05:10:43.857Z,979.02
2023-05-02T05:11:43.788Z,979.01
2023-05-02T05:12:43.702Z,979.05
2023-05-02T05:13:43.612Z,979.04
2023-05-02T05:14:43.538Z,979.04
2023-05-02T05:15:43.464Z,979.03
2023-05-02T05:16:43.431Z,979.06
2023-05-02T05:17:43.333Z,979.04
2023-05-02T05:18:43.209Z,979.07
2023-05-02T05:19:43.114Z,979.08
2023-05-02T05:20:43.025Z,979.07
2023-05-02T05:21:42.952Z,979.10
2023-05-02T05:22:42.869Z,979.14
2023-05-02T05:23:42.782Z,979.15
2023-05-02T05:24:42.698Z,979.14
2023-05-02T05:25:45.082Z,979.18
2023-05-02T05:26:42.532Z,979.16
2023-05-02T05:27:42.448Z,979.19
2023-05-02T05:28:42.369Z,979.19
2023-05-02T05:29:42.281Z,979.20
2023-05-02T05:30:42.206Z,979.19
2023-05-02T05:31:42.178Z,979.21
2023-05-02T05:32:42.061Z,979.22
2023-05-02T05:33:42.005Z,979.22
2023-05-02T05:34:41.863Z,979.22
2023-05-02T05:35:41.791Z,979.24
2023-05-02T05:36:41.704Z,979.20
2023-05-02T05:37:41.631Z,979.25
2023-05-02T05:38:41.541Z,979.27
2023-05-02T05:39:41.458Z,979.26
2023-05-02T05:40:41.374Z,979.27
2023-05-02T05:41:41.292Z,979.28
2023-05-02T05:42:41.201Z,979.26
2023-05-02T05:43:41.134Z,979.29
2023-05-02T05:44:41.038Z,979.29
2023-05-02T05:45:40.970Z,979.32
2023-05-02T05:46:40.909Z,979.30
2023-05-02T05:47:40.919Z,979.33
2023-05-02T05:48:40.707Z,979.32
2023-05-02T05:49:40.623Z,979.35
2023-05-02T05:50:40.548Z,979.34
2023-05-02T05:51:40.468Z,979.39
2023-05-02T05:52:40.379Z,979.39
2023-05-02T05:53:40.293Z,979.38
2023-05-02T05:54:40.214Z,979.41
2023-05-02T05:55:41.621Z,979.42
2023-05-02T05:56:40.059Z,979.41
2023-05-02T05:57:39.971Z,979.42
2023-05-02T05:58:39.879Z,979.44
2023-05-02T05:59:39.803Z,979.44
2023-05-02T06:00:39.739Z,979.45
2023-05-02T06:01:39.636Z,979.44
2023-05-02T06:02:39.632Z,979.42
2023-05-02T06:03:39.559Z,979.47
2023-05-02T06:04:39.401Z,979.44
2023-05-02T06:05:39.303Z,979.43
2023-05-02T06:06:39.265Z,979.47
2023-05-02T06:07:39.142Z,979.48
2023-05-02T06:08:39.100Z,979.54
2023-05-02T06:09:38.978Z,979.54
2023-05-02T06:10:38.892Z,979.52
2023-05-02T06:11:38.810Z,979.56
2023-05-02T06:12:38.734Z,979.57
2023-05-02T06:13:38.670Z,979.57
2023-05-02T06:14:38.574Z,979.59
2023-05-02T06:15:38.595Z,979.56
2023-05-02T06:16:38.472Z,979.58
2023-05-02T06:17:38.360Z,979.57
2023-05-02T06:18:38.234Z,979.57
2023-05-02T06:19:38.154Z,979.61
2023-05-02T06:20:38.071Z,979.58
2023-05-02T06:21:38.026Z,979.63
2023-05-02T06:22:37.920Z,979.68
2023-05-02T06:23:37.843Z,979.70
2023-05-02T06:24:37.765Z,979.70
2023-05-02T06:25:37.672Z,979.74
2023-05-02T06:26:37.573Z,979.74
2023-05-02T06:27:37.505Z,979.77
2023-05-02T06:28:37.421Z,979.81
2023-05-02T06:29:37.328Z,979.79
2023-05-02T06:30:37.253Z,979.82
2023-05-02T06:31:37.227Z,979.86
2023-05-02T06:32:37.110Z,979.85
2023-05-02T06:33:37.133Z,979.85
2023-05-02T06:34:36.917Z,979.87
2023-05-02T06:35:36.847Z,979.91
2023-05-02T06:36:36.750Z,979.93
2023-05-02T06:37:36.682Z,979.92
2023-05-02T06:38:36.595Z,979.95
2023-05-02T06:39:36.532Z,980.01
2023-05-02T06:40:36.433Z,980.04
2023-05-02T06:41:36.349Z,980.04
2023-05-02T06:42:36.268Z,980.04
2023-05-02T06:43:36.184Z,980.05
2023-05-02T06:44:36.098Z,980.04
2023-05-02T06:45:36.027Z,980.10
2023-05-02T06:46:35.993Z,980.09
2023-05-02T06:47:35.903Z,980.09
2023-05-02T06:48:35.771Z,980.11
2023-05-02T06:49:35.691Z,980.12
2023-05-02T06:50:35.614Z,980.16
2023-05-02T06:51:35.526Z,980.17
2023-05-02T06:52:35.452Z,980.21
2023-05-02T06:53:35.368Z,980.21
2023-05-02T06:54:35.281Z,980.22
2023-05-02T06:55:35.213Z,980.23
2023-05-02T06:56:35.152Z,980.24
2023-05-02T06:57:35.037Z,980.28
2023-05-02T06:58:34.975Z,980.27
2023-05-02T06:59:34.877Z,980.25
2023-05-02T07:00:34.864Z,980.29
2023-05-02T07:01:34.813Z,980.32
2023-05-02T07:02:34.667Z,980.36
2023-05-02T07:03:34.558Z,980.37
2023-05-02T07:04:34.496Z,980.36
2023-05-02T07:05:34.387Z,980.40
2023-05-02T07:06:34.423Z,980.41
2023-05-02T07:07:34.223Z,980.37
2023-05-02T07:08:34.156Z,980.44
2023-05-02T07:09:34.067Z,980.44
2023-05-02T07:10:33.973Z,980.44
2023-05-02T07:11:33.924Z,980.46
2023-05-02T07:12:33.822Z,980.47
2023-05-02T07:13:33.748Z,980.47
2023-05-02T07:14:33.671Z,980.46
2023-05-02T07:15:33.579Z,980.46
2023-05-02T07:16:33.533Z,980.51
2023-05-02T07:17:33.470Z,980.48
2023-05-02T07:18:33.330Z,980.50
2023-05-02T07:19:33.256Z,980.50
2023-05-02T07:20:33.167Z,980.52
2023-05-02T07:21:33.086Z,980.55
2023-05-02T07:22:33.007Z,980.58
2023-05-02T07:23:32.921Z,980.59
2023-05-02T07:24:32.837Z,980.58
2023-05-02T07:25:32.771Z,980.61
2023-05-02T07:26:32.682Z,980.62
2023-05-02T07:27:32.623Z,980.65
2023-05-02T07:28:32.516Z,980.65
2023-05-02T07:29:32.441Z,980.67
2023-05-02T07:30:32.353Z,980.69
2023-05-02T07:31:32.280Z,980.69
2023-05-02T07:32:32.374Z,980.68
2023-05-02T07:33:32.119Z,980.71
2023-05-02T07:34:32.032Z,980.68
2023-05-02T07:35:31.948Z,980.69
2023-05-02T07:36:31.867Z,980.71
2023-05-02T07:37:33.629Z,980.75
2023-05-02T07:38:31.707Z,980.69
2023-05-02T07:39:31.626Z,980.72
2023-05-02T07:40:31.551Z,980.71
2023-05-02T07:41:31.467Z,980.73
2023-05-02T07:42:31.397Z,980.75
2023-05-02T07:43:31.306Z,980.78
2023-05-02T07:44:31.226Z,980.78
2023-05-02T07:45:31.140Z,980.79
2023-05-02T07:46:31.090Z,980.80
2023-05-02T07:47:31.010Z,980.83
2023-05-02T07:48:30.900Z,980.85
2023-05-02T07:49:30.816Z,980.81
2023-05-02T07:50:30.744Z,980.84
2023-05-02T07:51:30.661Z,980.81
2023-05-02T07:52:30.575Z,980.85
2023-05-02T07:53:30.506Z,980.85
2023-05-02T07:54:30.413Z,980.88
2023-05-02T07:55:30.340Z,980.88
2023-05-02T07:56:30.260Z,980.93
2023-05-02T07:57:30.177Z,980.92
2023-05-02T07:58:30.089Z,980.95
2023-05-02T07:59:30.030Z,981.01
2023-05-02T08:00:29.932Z,981.02
2023-05-02T08:01:29.874Z,980.98
2023-05-02T08:02:29.906Z,981.01
2023-05-02T08:03:29.881Z,981.01
2023-05-02T08:04:29.732Z,981.05
2023-05-02T08:05:29.529Z,981.03
2023-05-02T08:06:29.452Z,981.10
2023-05-02T08:07:29.386Z,981.04
2023-05-02T08:08:29.289Z,981.12
2023-05-02T08:09:29.218Z,981.11
2023-05-02T08:10:29.131Z,981.12
2023-05-02T08:11:29.041Z,981.13
2023-05-02T08:12:28.959Z,981.14
2023-05-02T08:13:28.891Z,981.20
2023-05-02T08:14:28.811Z,981.18
2023-05-02T08:15:28.718Z,981.19
2023-05-02T08:16:28.674Z,981.21
2023-05-02T08:17:28.588Z,981.20
2023-05-02T08:18:28.476Z,981.20
2023-05-02T08:19:28.482Z,981.15
2023-05-02T08:20:28.330Z,981.16
2023-05-02T08:21:28.240Z,981.17
2023-05-02T08:22:28.154Z,981.18
2023-05-02T08:23:28.090Z,981.22
2023-05-02T08:24:28.002Z,981.20
2023-05-02T08:25:27.921Z,981.23
2023-05-02T08:26:27.834Z,981.23
2023-05-02T08:27:27.756Z,981.23
2023-05-02T08:28:27.674Z,981.23
2023-05-02T08:29:27.597Z,981.26
2023-05-02T08:30:27.517Z,981.29
2023-05-02T08:31:27.452Z,981.27
2023-05-02T08:32:27.368Z,981.32
2023-05-02T08:33:27.282Z,981.28
2023-05-02T08:34:27.201Z,981.28
2023-05-02T08:35:27.124Z,981.28
2023-05-02T08:36:27.030Z,981.33
2023-05-02T08:37:26.953Z,981.33
2023-05-02T08:38:26.870Z,981.32
2023-05-02T08:39:26.812Z,981.34
2023-05-02T08:40:40.584Z,981.35
2023-05-02T08:41:26.640Z,981.37
2023-05-02T08:42:26.551Z,981.36
2023-05-02T08:43:26.475Z,981.35
2023-05-02T08:44:26.385Z,981.36
2023-05-02T08:45:26.307Z,981.34
2023-05-02T08:46:26.254Z,981.34
2023-05-02T08:47:26.326Z,981.34
2023-05-02T08:48:26.075Z,981.36
2023-05-02T08:49:25.982Z,981.36
2023-05-02T08:50:25.906Z,981.36
2023-05-02T08:51:25.825Z,981.38
2023-05-02T08:52:25.739Z,981.40
2023-05-02T08:53:25.671Z,981.45
2023-05-02T08:54:25.590Z,981.43
2023-05-02T08:55:25.566Z,981.44
2023-05-02T08:56:25.441Z,981.44
2023-05-02T08:57:25.341Z,981.41
2023-05-02T08:58:25.257Z,981.42
2023-05-02T08:59:25.185Z,981.45
2023-05-02T09:00:25.102Z,981.46
2023-05-02T09:01:25.130Z,981.46
2023-05-02T09:02:24.980Z,981.46
2023-05-02T09:03:24.903Z,981.47
2023-05-02T09:04:24.838Z,981.48
2023-05-02T09:05:24.700Z,981.56
2023-05-02T09:06:24.654Z,981.53
2023-05-02T09:07:24.537Z,981.56
2023-05-02T09:08:24.465Z,981.57
2023-05-02T09:09:24.383Z,981.58
2023-05-02T09:10:24.300Z,981.62
2023-05-02T09:11:24.220Z,981.65
2023-05-02T09:12:24.130Z,981.65
2023-05-02T09:13:24.057Z,981.67
2023-05-02T09:14:24.013Z,981.66
2023-05-02T09:15:23.897Z,981.68
2023-05-02T09:16:23.930Z,981.69
2023-05-02T09:17:23.855Z,981.68
2023-05-02T09:18:23.652Z,981.68
2023-05-02T09:19:23.584Z,981.70
2023-05-02T09:20:23.502Z,981.72
2023-05-02T09:21:23.425Z,981.70
2023-05-02T09:22:23.345Z,981.68
2023-05-02T09:23:23.257Z,981.68
2023-05-02T09:24:23.172Z,981.71
2023-05-02T09:25:23.094Z,981.74
2023-05-02T09:26:23.021Z,981.76
2023-05-02T09:27:22.935Z,981.78
2023-05-02T09:28:22.855Z,981.80
2023-05-02T09:29:22.784Z,981.75
2023-05-02T09:30:22.694Z,981.76
2023-05-02T09:32:22.640Z,981.77
2023-05-02T09:33:22.455Z,981.73
2023-05-02T09:34:22.383Z,981.77
2023-05-02T09:35:22.301Z,981.76
2023-05-02T09:36:22.226Z,981.75
2023-05-02T09:37:22.135Z,981.77
2023-05-02T09:38:22.065Z,981.76
2023-05-02T09:39:22.599Z,981.75
2023-05-02T09:40:21.897Z,981.75
2023-05-02T09:41:21.825Z,981.74
2023-05-02T09:42:21.747Z,981.76
2023-05-02T09:43:21.765Z,981.73
2023-05-02T09:44:21.581Z,981.78
2023-05-02T09:45:21.504Z,981.75
2023-05-02T09:46:21.466Z,981.77
2023-05-02T09:47:21.359Z,981.80
2023-05-02T09:48:21.268Z,981.78
2023-05-02T09:49:21.199Z,981.80
2023-05-02T09:50:21.111Z,981.78
2023-05-02T09:51:21.021Z,981.80
2023-05-02T09:52:20.950Z,981.78
2023-05-02T09:53:20.877Z,981.80
2023-05-02T09:54:20.806Z,981.79
2023-05-02T09:55:20.748Z,981.82
2023-05-02T09:56:20.641Z,981.85
2023-05-02T09:57:20.573Z,981.83
2023-05-02T09:58:20.478Z,981.80
2023-05-02T09:59:20.466Z,981.82
2023-05-02T10:00:20.334Z,981.78
2023-05-02T10:01:20.282Z,981.79
2023-05-02T10:02:20.248Z,981.82
2023-05-02T10:03:20.090Z,981.80
2023-05-02T10:04:20.039Z,981.79
2023-05-02T10:05:19.933Z,981.81
2023-05-02T10:06:19.907Z,981.81
2023-05-02T10:07:19.770Z,981.81
2023-05-02T10:08:19.698Z,981.84
2023-05-02T10:09:21.522Z,981.84
2023-05-02T10:10:19.546Z,981.80
2023-05-02T10:11:19.465Z,981.82
2023-05-02T10:12:19.397Z,981.81
2023-05-02T10:13:19.303Z,981.80
2023-05-02T10:14:19.233Z,981.83
2023-05-02T10:15:19.147Z,981.80
2023-05-02T10:16:19.101Z,981.81
2023-05-02T10:17:18.995Z,981.80
2023-05-02T10:18:18.918Z,981.80
2023-05-02T10:19:18.840Z,981.79
2023-05-02T10:20:18.765Z,981.78
2023-05-02T10:21:18.703Z,981.80
2023-05-02T10:22:18.606Z,981.79
2023-05-02T10:23:18.536Z,981.80
2023-05-02T10:24:18.456Z,981.79
2023-05-02T10:25:18.372Z,981.81
2023-05-02T10:26:18.302Z,981.83
2023-05-02T10:27:18.219Z,981.83
2023-05-02T10:28:18.143Z,981.84
2023-05-02T10:29:18.077Z,981.86
2023-05-02T10:30:17.990Z,981.80
2023-05-02T10:31:17.965Z,981.84
2023-05-02T10:32:17.852Z,981.84
2023-05-02T10:33:17.762Z,981.82
2023-05-02T10:34:17.682Z,981.80
2023-05-02T10:35:17.600Z,981.81
2023-05-02T10:36:17.531Z,981.81
2023-05-02T10:37:17.451Z,981.81
2023-05-02T10:38:17.376Z,981.80
2023-05-02T10:39:17.296Z,981.77
2023-05-02T10:40:17.218Z,981.81
2023-05-02T10:41:17.136Z,981.78
2023-05-02T10:42:17.069Z,981.75
2023-05-02T10:43:16.979Z,981.76
2023-05-02T10:44:16.911Z,981.74
2023-05-02T10:45:16.833Z,981.71
2023-05-02T10:46:16.792Z,981.71
2023-05-02T10:47:16.677Z,981.73
2023-05-02T10:48:16.630Z,981.70
2023-05-02T10:49:16.522Z,981.66
2023-05-02T10:50:16.459Z,981.66
2023-05-02T10:51:16.376Z,981.66
2023-05-02T10:52:16.292Z,981.64
2023-05-02T10:53:16.215Z,981.63
2023-05-02T10:54:16.150Z,981.65
2023-05-02T10:55:16.059Z,981.63
2023-05-02T10:56:15.994Z,981.62
2023-05-02T10:57:15.912Z,981.62
2023-05-02T10:58:15.843Z,981.61
2023-05-02T10:59:15.763Z,981.63
2023-05-02T11:00:15.686Z,981.65
2023-05-02T11:01:15.655Z,981.61
2023-05-02T11:02:15.565Z,981.62
2023-05-02T11:03:15.560Z,981.61
2023-05-02T11:04:15.376Z,981.57
2023-05-02T11:05:15.297Z,981.56
2023-05-02T11:06:15.261Z,981.51
2023-05-02T11:07:15.145Z,981.52
2023-05-02T11:08:15.071Z,981.54
2023-05-02T11:09:15.014Z,981.53
2023-05-02T11:10:14.959Z,981.51
2023-05-02T11:11:14.837Z,981.46
2023-05-02T11:12:14.763Z,981.49
2023-05-02T11:13:14.703Z,981.45
2023-05-02T11:14:14.609Z,981.45
2023-05-02T11:15:14.538Z,981.44
2023-05-02T11:16:14.492Z,981.42
2023-05-02T11:17:14.380Z,981.43
2023-05-02T11:18:14.469Z,981.42
2023-05-02T11:19:14.231Z,981.37
2023-05-02T11:20:14.168Z,981.35
2023-05-02T11:21:14.080Z,981.40
2023-05-02T11:22:14.002Z,981.39
2023-05-02T11:23:13.927Z,981.36
2023-05-02T11:24:13.858Z,981.37
2023-05-02T11:25:13.793Z,981.36
2023-05-02T11:26:13.697Z,981.34
2023-05-02T11:27:13.620Z,981.35
2023-05-02T11:28:13.550Z,981.36
2023-05-02T11:29:13.467Z,981.35
2023-05-02T11:30:13.515Z,981.37
2023-05-02T11:31:13.324Z,981.39
2023-05-02T11:32:13.254Z,981.39
2023-05-02T11:33:13.215Z,981.39
2023-05-02T11:34:13.093Z,981.40
2023-05-02T11:35:13.062Z,981.44
2023-05-02T11:36:12.938Z,981.42
2023-05-02T11:37:12.878Z,981.44
2023-05-02T11:38:12.788Z,981.43
2023-05-02T11:39:12.712Z,981.46
2023-05-02T11:40:12.688Z,981.46
2023-05-02T11:41:12.562Z,981.49
2023-05-02T11:42:12.482Z,981.47
2023-05-02T11:43:12.414Z,981.46
2023-05-02T11:44:12.337Z,981.42
2023-05-02T11:45:12.251Z,981.43
2023-05-02T11:46:12.215Z,981.44
2023-05-02T11:47:12.102Z,981.39
2023-05-02T11:48:12.069Z,981.36
2023-05-02T11:49:12.728Z,981.39
2023-05-02T11:50:11.907Z,981.38
2023-05-02T11:51:11.817Z,981.39
2023-05-02T11:52:11.721Z,981.43
2023-05-02T11:53:11.645Z,981.44
2023-05-02T11:54:11.566Z,981.43
2023-05-02T11:55:11.874Z,981.47
2023-05-02T11:56:11.423Z,981.51
2023-05-02T11:57:11.347Z,981.49
2023-05-02T11:58:11.272Z,981.44
2023-05-02T11:59:11.189Z,981.42
2023-05-02T12:00:11.138Z,981.43
2023-05-02T12:01:11.166Z,981.39
2023-05-02T12:02:11.011Z,981.40
2023-05-02T12:03:11.001Z,981.43
2023-05-02T12:04:10.813Z,981.40
2023-05-02T12:05:10.769Z,981.42
2023-05-02T12:06:10.720Z,981.45
2023-05-02T12:07:12.194Z,981.47
2023-05-02T12:08:10.507Z,981.49
2023-05-02T12:09:10.425Z,981.53
2023-05-02T12:10:10.352Z,981.55
2023-05-02T12:11:10.279Z,981.52
2023-05-02T12:12:10.198Z,981.54
2023-05-02T12:13:11.410Z,981.59
2023-05-02T12:14:10.051Z,981.61
2023-05-02T12:15:09.964Z,981.59
2023-05-02T12:16:09.908Z,981.64
2023-05-02T12:17:09.813Z,981.64
2023-05-02T12:18:09.820Z,981.64
2023-05-02T12:19:09.662Z,981.66
2023-05-02T12:20:09.592Z,981.69
2023-05-02T12:21:09.508Z,981.72
2023-05-02T12:22:09.439Z,981.72
2023-05-02T12:23:09.354Z,981.77
2023-05-02T12:24:09.281Z,981.79
2023-05-02T12:25:09.204Z,981.75
2023-05-02T12:26:09.128Z,981.76
2023-05-02T12:27:09.055Z,981.69
2023-05-02T12:28:08.978Z,981.70